sensor_id;sensor_type;location;lat;lon;timestamp;P1;durP1;ratioP1;P2;durP2;ratioP2
34317;SDS011;20582;52.196;20.952;2022-08-05T00:00:58;12.18;;;6.05;;
34317;SDS011;20582;52.196;20.952;2022-08-05T00:03:24;12.80;;;5.97;;
34317;SDS011;20582;52.196;20.952;2022-08-05T00:05:50;11.82;;;6.10;;
34317;SDS011;20582;52.196;20.952;2022-08-05T00:08:16;8.48;;;5.68;;
34317;SDS011;20582;52.196;20.952;2022-08-05T00:10:43;9.40;;;5.85;;
34317;SDS011;20582;52.196;20.952;2022-08-05T00:13:09;11.70;;;6.13;;
34317;SDS011;20582;52.196;20.952;2022-08-05T00:15:35;10.63;;;5.97;;
34317;SDS011;20582;52.196;20.952;2022-08-05T00:18:01;10.23;;;6.47;;
34317;SDS011;20582;52.196;20.952;2022-08-05T00:20:27;10.95;;;6.32;;
34317;SDS011;20582;52.196;20.952;2022-08-05T00:22:53;11.60;;;6.57;;
34317;SDS011;20582;52.196;20.952;2022-08-05T00:25:19;11.77;;;6.68;;
34317;SDS011;20582;52.196;20.952;2022-08-05T00:27:45;11.40;;;6.28;;
34317;SDS011;20582;52.196;20.952;2022-08-05T00:30:11;12.15;;;6.43;;
34317;SDS011;20582;52.196;20.952;2022-08-05T00:32:37;12.82;;;7.18;;
34317;SDS011;20582;52.196;20.952;2022-08-05T00:35:04;12.25;;;6.90;;
34317;SDS011;20582;52.196;20.952;2022-08-05T00:37:30;12.02;;;7.03;;
34317;SDS011;20582;52.196;20.952;2022-08-05T00:39:56;11.85;;;6.32;;
34317;SDS011;20582;52.196;20.952;2022-08-05T00:42:29;10.70;;;6.68;;
34317;SDS011;20582;52.196;20.952;2022-08-05T00:44:55;12.40;;;6.78;;
34317;SDS011;20582;52.196;20.952;2022-08-05T00:47:22;13.40;;;7.15;;
34317;SDS011;20582;52.196;20.952;2022-08-05T00:49:48;12.45;;;6.32;;
34317;SDS011;20582;52.196;20.952;2022-08-05T00:52:14;12.73;;;6.82;;
34317;SDS011;20582;52.196;20.952;2022-08-05T00:54:40;11.18;;;6.45;;
34317;SDS011;20582;52.196;20.952;2022-08-05T00:57:06;10.88;;;6.57;;
34317;SDS011;20582;52.196;20.952;2022-08-05T00:59:32;9.75;;;6.40;;
34317;SDS011;20582;52.196;20.952;2022-08-05T01:01:58;9.25;;;6.78;;
34317;SDS011;20582;52.196;20.952;2022-08-05T01:04:24;11.80;;;6.32;;
34317;SDS011;20582;52.196;20.952;2022-08-05T01:06:50;14.60;;;6.93;;
34317;SDS011;20582;52.196;20.952;2022-08-05T01:09:16;9.88;;;6.65;;
34317;SDS011;20582;52.196;20.952;2022-08-05T01:11:42;9.55;;;6.30;;
34317;SDS011;20582;52.196;20.952;2022-08-05T01:14:10;10.20;;;6.50;;
34317;SDS011;20582;52.196;20.952;2022-08-05T01:16:48;11.88;;;6.63;;
34317;SDS011;20582;52.196;20.952;2022-08-05T01:21:57;11.43;;;6.82;;
34317;SDS011;20582;52.196;20.952;2022-08-05T01:27:08;11.43;;;6.45;;
34317;SDS011;20582;52.196;20.952;2022-08-05T01:32:05;12.45;;;6.40;;
34317;SDS011;20582;52.196;20.952;2022-08-05T01:34:47;11.55;;;7.20;;
34317;SDS011;20582;52.196;20.952;2022-08-05T01:37:17;12.38;;;6.80;;
34317;SDS011;20582;52.196;20.952;2022-08-05T01:39:44;10.60;;;6.65;;
34317;SDS011;20582;52.196;20.952;2022-08-05T01:42:15;12.10;;;6.65;;
34317;SDS011;20582;52.196;20.952;2022-08-05T01:44:41;11.48;;;6.40;;
34317;SDS011;20582;52.196;20.952;2022-08-05T01:47:09;10.90;;;6.15;;
34317;SDS011;20582;52.196;20.952;2022-08-05T01:49:36;10.50;;;6.15;;
34317;SDS011;20582;52.196;20.952;2022-08-05T01:52:04;10.75;;;6.78;;
34317;SDS011;20582;52.196;20.952;2022-08-05T01:54:34;11.70;;;6.22;;
34317;SDS011;20582;52.196;20.952;2022-08-05T01:57:02;10.73;;;5.70;;
34317;SDS011;20582;52.196;20.952;2022-08-05T01:59:29;9.60;;;6.00;;
34317;SDS011;20582;52.196;20.952;2022-08-05T02:01:57;12.95;;;6.60;;
34317;SDS011;20582;52.196;20.952;2022-08-05T02:04:25;11.85;;;6.85;;
34317;SDS011;20582;52.196;20.952;2022-08-05T02:06:52;12.43;;;6.78;;
34317;SDS011;20582;52.196;20.952;2022-08-05T02:09:19;12.75;;;6.55;;
34317;SDS011;20582;52.196;20.952;2022-08-05T02:12:03;10.25;;;6.22;;
34317;SDS011;20582;52.196;20.952;2022-08-05T02:14:32;11.48;;;6.93;;
34317;SDS011;20582;52.196;20.952;2022-08-05T02:17:01;13.75;;;6.30;;
34317;SDS011;20582;52.196;20.952;2022-08-05T02:19:36;10.85;;;6.40;;
34317;SDS011;20582;52.196;20.952;2022-08-05T02:22:14;14.43;;;6.85;;
34317;SDS011;20582;52.196;20.952;2022-08-05T02:24:42;11.00;;;6.47;;
34317;SDS011;20582;52.196;20.952;2022-08-05T02:27:11;11.32;;;6.55;;
34317;SDS011;20582;52.196;20.952;2022-08-05T02:29:39;10.27;;;6.13;;
34317;SDS011;20582;52.196;20.952;2022-08-05T02:32:06;13.98;;;6.50;;
34317;SDS011;20582;52.196;20.952;2022-08-05T02:34:32;11.18;;;6.60;;
34317;SDS011;20582;52.196;20.952;2022-08-05T02:37:00;10.48;;;6.60;;
34317;SDS011;20582;52.196;20.952;2022-08-05T02:39:27;9.85;;;6.38;;
34317;SDS011;20582;52.196;20.952;2022-08-05T02:41:54;10.32;;;6.60;;
34317;SDS011;20582;52.196;20.952;2022-08-05T02:44:20;11.75;;;6.57;;
34317;SDS011;20582;52.196;20.952;2022-08-05T02:46:49;10.35;;;6.65;;
34317;SDS011;20582;52.196;20.952;2022-08-05T02:49:16;10.55;;;6.80;;
34317;SDS011;20582;52.196;20.952;2022-08-05T02:51:43;11.10;;;6.53;;
34317;SDS011;20582;52.196;20.952;2022-08-05T02:54:09;11.43;;;6.28;;
34317;SDS011;20582;52.196;20.952;2022-08-05T02:56:35;9.80;;;7.30;;
34317;SDS011;20582;52.196;20.952;2022-08-05T02:59:02;12.23;;;6.78;;
34317;SDS011;20582;52.196;20.952;2022-08-05T03:01:29;11.93;;;7.20;;
34317;SDS011;20582;52.196;20.952;2022-08-05T03:03:57;10.85;;;6.72;;
34317;SDS011;20582;52.196;20.952;2022-08-05T03:06:24;11.05;;;7.20;;
34317;SDS011;20582;52.196;20.952;2022-08-05T03:08:51;10.95;;;6.90;;
34317;SDS011;20582;52.196;20.952;2022-08-05T03:11:21;10.73;;;7.07;;
34317;SDS011;20582;52.196;20.952;2022-08-05T03:13:48;11.73;;;6.95;;
34317;SDS011;20582;52.196;20.952;2022-08-05T03:16:14;16.02;;;8.30;;
34317;SDS011;20582;52.196;20.952;2022-08-05T03:18:40;11.73;;;7.57;;
34317;SDS011;20582;52.196;20.952;2022-08-05T03:21:06;11.82;;;7.10;;
34317;SDS011;20582;52.196;20.952;2022-08-05T03:23:33;13.35;;;7.80;;
34317;SDS011;20582;52.196;20.952;2022-08-05T03:25:59;12.82;;;8.15;;
34317;SDS011;20582;52.196;20.952;2022-08-05T03:28:26;11.70;;;7.72;;
34317;SDS011;20582;52.196;20.952;2022-08-05T03:30:52;11.38;;;7.85;;
34317;SDS011;20582;52.196;20.952;2022-08-05T03:33:19;12.38;;;7.97;;
34317;SDS011;20582;52.196;20.952;2022-08-05T03:35:45;12.18;;;8.10;;
34317;SDS011;20582;52.196;20.952;2022-08-05T03:38:12;14.07;;;8.52;;
34317;SDS011;20582;52.196;20.952;2022-08-05T03:40:39;10.90;;;8.40;;
34317;SDS011;20582;52.196;20.952;2022-08-05T03:43:05;11.93;;;8.65;;
34317;SDS011;20582;52.196;20.952;2022-08-05T03:45:31;13.68;;;8.73;;
34317;SDS011;20582;52.196;20.952;2022-08-05T03:47:57;13.68;;;9.82;;
34317;SDS011;20582;52.196;20.952;2022-08-05T03:50:23;13.20;;;9.82;;
34317;SDS011;20582;52.196;20.952;2022-08-05T03:52:51;15.88;;;9.73;;
34317;SDS011;20582;52.196;20.952;2022-08-05T03:55:22;14.45;;;10.30;;
34317;SDS011;20582;52.196;20.952;2022-08-05T03:57:50;15.23;;;9.65;;
34317;SDS011;20582;52.196;20.952;2022-08-05T04:00:16;15.77;;;10.80;;
34317;SDS011;20582;52.196;20.952;2022-08-05T04:02:49;18.67;;;10.77;;
34317;SDS011;20582;52.196;20.952;2022-08-05T04:05:17;13.60;;;9.63;;
34317;SDS011;20582;52.196;20.952;2022-08-05T04:07:44;18.98;;;10.27;;
34317;SDS011;20582;52.196;20.952;2022-08-05T04:10:10;13.77;;;9.82;;
34317;SDS011;20582;52.196;20.952;2022-08-05T04:12:36;14.38;;;10.32;;
34317;SDS011;20582;52.196;20.952;2022-08-05T04:15:03;12.82;;;9.82;;
34317;SDS011;20582;52.196;20.952;2022-08-05T04:17:29;17.05;;;10.35;;
34317;SDS011;20582;52.196;20.952;2022-08-05T04:19:55;16.08;;;10.32;;
34317;SDS011;20582;52.196;20.952;2022-08-05T04:22:21;15.75;;;10.25;;
34317;SDS011;20582;52.196;20.952;2022-08-05T04:24:47;12.48;;;9.68;;
34317;SDS011;20582;52.196;20.952;2022-08-05T04:27:13;16.27;;;10.68;;
34317;SDS011;20582;52.196;20.952;2022-08-05T04:29:39;17.65;;;10.60;;
34317;SDS011;20582;52.196;20.952;2022-08-05T04:32:06;15.77;;;10.90;;
34317;SDS011;20582;52.196;20.952;2022-08-05T04:34:32;15.98;;;11.02;;
34317;SDS011;20582;52.196;20.952;2022-08-05T04:36:58;19.80;;;11.70;;
34317;SDS011;20582;52.196;20.952;2022-08-05T04:39:24;16.85;;;11.55;;
34317;SDS011;20582;52.196;20.952;2022-08-05T04:41:50;16.52;;;11.98;;
34317;SDS011;20582;52.196;20.952;2022-08-05T04:44:17;20.02;;;11.95;;
34317;SDS011;20582;52.196;20.952;2022-08-05T04:46:43;18.23;;;12.00;;
34317;SDS011;20582;52.196;20.952;2022-08-05T04:49:09;16.73;;;12.73;;
34317;SDS011;20582;52.196;20.952;2022-08-05T04:51:35;19.42;;;12.75;;
34317;SDS011;20582;52.196;20.952;2022-08-05T04:54:01;17.48;;;13.02;;
34317;SDS011;20582;52.196;20.952;2022-08-05T04:56:27;18.33;;;13.13;;
34317;SDS011;20582;52.196;20.952;2022-08-05T04:58:53;16.67;;;12.05;;
34317;SDS011;20582;52.196;20.952;2022-08-05T05:01:19;16.98;;;12.38;;
34317;SDS011;20582;52.196;20.952;2022-08-05T05:03:45;17.52;;;13.02;;
34317;SDS011;20582;52.196;20.952;2022-08-05T05:06:12;16.13;;;12.43;;
34317;SDS011;20582;52.196;20.952;2022-08-05T05:08:38;17.98;;;13.32;;
34317;SDS011;20582;52.196;20.952;2022-08-05T05:11:05;20.85;;;12.77;;
34317;SDS011;20582;52.196;20.952;2022-08-05T05:13:31;15.30;;;12.95;;
34317;SDS011;20582;52.196;20.952;2022-08-05T05:15:57;17.17;;;12.82;;
34317;SDS011;20582;52.196;20.952;2022-08-05T05:18:23;14.80;;;12.60;;
34317;SDS011;20582;52.196;20.952;2022-08-05T05:20:49;20.38;;;12.98;;
34317;SDS011;20582;52.196;20.952;2022-08-05T05:23:15;15.25;;;12.23;;
34317;SDS011;20582;52.196;20.952;2022-08-05T05:25:42;16.95;;;13.13;;
34317;SDS011;20582;52.196;20.952;2022-08-05T05:28:09;16.50;;;12.35;;
34317;SDS011;20582;52.196;20.952;2022-08-05T05:30:36;18.63;;;12.60;;
34317;SDS011;20582;52.196;20.952;2022-08-05T05:33:03;21.25;;;12.68;;
34317;SDS011;20582;52.196;20.952;2022-08-05T05:35:29;16.15;;;12.82;;
34317;SDS011;20582;52.196;20.952;2022-08-05T05:37:56;17.83;;;12.13;;
34317;SDS011;20582;52.196;20.952;2022-08-05T05:40:27;18.70;;;12.43;;
34317;SDS011;20582;52.196;20.952;2022-08-05T05:42:53;17.02;;;13.18;;
34317;SDS011;20582;52.196;20.952;2022-08-05T05:45:20;14.18;;;11.95;;
34317;SDS011;20582;52.196;20.952;2022-08-05T05:47:46;15.68;;;11.70;;
34317;SDS011;20582;52.196;20.952;2022-08-05T05:50:13;16.35;;;12.40;;
34317;SDS011;20582;52.196;20.952;2022-08-05T05:52:39;15.73;;;11.35;;
34317;SDS011;20582;52.196;20.952;2022-08-05T05:55:06;15.95;;;12.35;;
34317;SDS011;20582;52.196;20.952;2022-08-05T05:57:33;16.33;;;10.95;;
34317;SDS011;20582;52.196;20.952;2022-08-05T05:59:59;15.65;;;10.48;;
34317;SDS011;20582;52.196;20.952;2022-08-05T06:02:25;18.90;;;11.60;;
34317;SDS011;20582;52.196;20.952;2022-08-05T06:04:51;18.45;;;11.75;;
34317;SDS011;20582;52.196;20.952;2022-08-05T06:07:17;14.60;;;10.50;;
34317;SDS011;20582;52.196;20.952;2022-08-05T06:09:43;15.57;;;10.52;;
34317;SDS011;20582;52.196;20.952;2022-08-05T06:12:09;17.55;;;10.30;;
34317;SDS011;20582;52.196;20.952;2022-08-05T06:14:35;17.80;;;11.77;;
34317;SDS011;20582;52.196;20.952;2022-08-05T06:17:01;20.17;;;10.73;;
34317;SDS011;20582;52.196;20.952;2022-08-05T06:19:27;16.30;;;9.82;;
34317;SDS011;20582;52.196;20.952;2022-08-05T06:21:53;14.18;;;10.18;;
34317;SDS011;20582;52.196;20.952;2022-08-05T06:24:19;11.77;;;10.38;;
34317;SDS011;20582;52.196;20.952;2022-08-05T06:26:45;15.88;;;10.38;;
34317;SDS011;20582;52.196;20.952;2022-08-05T06:29:11;13.00;;;7.95;;
34317;SDS011;20582;52.196;20.952;2022-08-05T06:31:37;16.17;;;9.60;;
34317;SDS011;20582;52.196;20.952;2022-08-05T06:34:03;10.65;;;8.30;;
34317;SDS011;20582;52.196;20.952;2022-08-05T06:36:30;18.88;;;8.52;;
34317;SDS011;20582;52.196;20.952;2022-08-05T06:38:56;11.60;;;8.50;;
34317;SDS011;20582;52.196;20.952;2022-08-05T06:41:22;12.55;;;8.55;;
34317;SDS011;20582;52.196;20.952;2022-08-05T06:43:48;12.40;;;7.75;;
34317;SDS011;20582;52.196;20.952;2022-08-05T06:46:14;13.07;;;7.55;;
34317;SDS011;20582;52.196;20.952;2022-08-05T06:48:40;12.05;;;7.68;;
34317;SDS011;20582;52.196;20.952;2022-08-05T06:51:06;12.27;;;7.72;;
34317;SDS011;20582;52.196;20.952;2022-08-05T06:53:32;11.10;;;7.85;;
34317;SDS011;20582;52.196;20.952;2022-08-05T06:56:00;9.35;;;7.38;;
34317;SDS011;20582;52.196;20.952;2022-08-05T06:58:30;14.32;;;7.40;;
34317;SDS011;20582;52.196;20.952;2022-08-05T07:01:00;11.57;;;7.20;;
34317;SDS011;20582;52.196;20.952;2022-08-05T07:03:26;13.57;;;7.38;;
34317;SDS011;20582;52.196;20.952;2022-08-05T07:05:53;10.90;;;6.80;;
34317;SDS011;20582;52.196;20.952;2022-08-05T07:08:19;12.65;;;6.57;;
34317;SDS011;20582;52.196;20.952;2022-08-05T07:10:49;9.85;;;6.45;;
34317;SDS011;20582;52.196;20.952;2022-08-05T07:13:15;9.98;;;6.75;;
34317;SDS011;20582;52.196;20.952;2022-08-05T07:16:00;8.45;;;5.68;;
34317;SDS011;20582;52.196;20.952;2022-08-05T07:18:45;10.02;;;6.13;;
34317;SDS011;20582;52.196;20.952;2022-08-05T07:21:11;10.55;;;6.35;;
34317;SDS011;20582;52.196;20.952;2022-08-05T07:23:37;10.70;;;6.78;;
34317;SDS011;20582;52.196;20.952;2022-08-05T07:26:03;10.13;;;6.20;;
34317;SDS011;20582;52.196;20.952;2022-08-05T07:28:30;8.88;;;5.82;;
34317;SDS011;20582;52.196;20.952;2022-08-05T07:30:56;8.70;;;5.93;;
34317;SDS011;20582;52.196;20.952;2022-08-05T07:33:22;10.65;;;6.53;;
34317;SDS011;20582;52.196;20.952;2022-08-05T07:35:48;12.23;;;6.15;;
34317;SDS011;20582;52.196;20.952;2022-08-05T07:38:15;9.18;;;5.97;;
34317;SDS011;20582;52.196;20.952;2022-08-05T07:40:41;14.40;;;6.50;;
34317;SDS011;20582;52.196;20.952;2022-08-05T07:43:08;10.40;;;6.05;;
34317;SDS011;20582;52.196;20.952;2022-08-05T07:45:34;9.82;;;5.80;;
34317;SDS011;20582;52.196;20.952;2022-08-05T07:47:59;10.15;;;5.25;;
34317;SDS011;20582;52.196;20.952;2022-08-05T07:50:26;9.55;;;5.50;;
34317;SDS011;20582;52.196;20.952;2022-08-05T07:52:52;10.93;;;5.97;;
34317;SDS011;20582;52.196;20.952;2022-08-05T07:55:18;9.70;;;5.88;;
34317;SDS011;20582;52.196;20.952;2022-08-05T07:57:44;9.13;;;5.68;;
34317;SDS011;20582;52.196;20.952;2022-08-05T08:00:10;10.93;;;5.85;;
34317;SDS011;20582;52.196;20.952;2022-08-05T08:02:38;11.15;;;5.95;;
34317;SDS011;20582;52.196;20.952;2022-08-05T08:05:04;8.48;;;5.57;;
34317;SDS011;20582;52.196;20.952;2022-08-05T08:07:31;9.77;;;5.80;;
34317;SDS011;20582;52.196;20.952;2022-08-05T08:09:57;8.80;;;5.15;;
34317;SDS011;20582;52.196;20.952;2022-08-05T08:12:23;10.88;;;5.35;;
34317;SDS011;20582;52.196;20.952;2022-08-05T08:14:49;8.38;;;5.60;;
34317;SDS011;20582;52.196;20.952;2022-08-05T08:17:15;9.00;;;5.88;;
34317;SDS011;20582;52.196;20.952;2022-08-05T08:19:41;10.80;;;5.68;;
34317;SDS011;20582;52.196;20.952;2022-08-05T08:22:08;8.73;;;5.57;;
34317;SDS011;20582;52.196;20.952;2022-08-05T08:24:34;11.13;;;5.85;;
34317;SDS011;20582;52.196;20.952;2022-08-05T08:27:01;7.50;;;5.15;;
34317;SDS011;20582;52.196;20.952;2022-08-05T08:29:27;13.15;;;5.55;;
34317;SDS011;20582;52.196;20.952;2022-08-05T08:31:53;9.82;;;5.82;;
34317;SDS011;20582;52.196;20.952;2022-08-05T08:34:20;11.23;;;5.53;;
34317;SDS011;20582;52.196;20.952;2022-08-05T08:36:46;9.18;;;5.40;;
34317;SDS011;20582;52.196;20.952;2022-08-05T08:39:13;9.85;;;6.15;;
34317;SDS011;20582;52.196;20.952;2022-08-05T08:41:41;10.65;;;5.85;;
34317;SDS011;20582;52.196;20.952;2022-08-05T08:44:07;10.82;;;5.25;;
34317;SDS011;20582;52.196;20.952;2022-08-05T08:46:34;10.20;;;5.70;;
34317;SDS011;20582;52.196;20.952;2022-08-05T08:49:01;9.77;;;5.53;;
34317;SDS011;20582;52.196;20.952;2022-08-05T08:51:30;11.60;;;7.05;;
34317;SDS011;20582;52.196;20.952;2022-08-05T08:53:56;13.07;;;5.65;;
34317;SDS011;20582;52.196;20.952;2022-08-05T08:56:22;10.40;;;5.70;;
34317;SDS011;20582;52.196;20.952;2022-08-05T08:58:49;7.38;;;5.18;;
34317;SDS011;20582;52.196;20.952;2022-08-05T09:01:15;8.43;;;5.63;;
34317;SDS011;20582;52.196;20.952;2022-08-05T09:03:42;9.35;;;5.10;;
34317;SDS011;20582;52.196;20.952;2022-08-05T09:06:08;8.43;;;5.38;;
34317;SDS011;20582;52.196;20.952;2022-08-05T09:08:35;11.00;;;5.43;;
34317;SDS011;20582;52.196;20.952;2022-08-05T09:11:01;10.10;;;5.32;;
34317;SDS011;20582;52.196;20.952;2022-08-05T09:13:27;9.30;;;5.40;;
34317;SDS011;20582;52.196;20.952;2022-08-05T09:15:53;18.88;;;5.20;;
34317;SDS011;20582;52.196;20.952;2022-08-05T09:18:19;8.50;;;5.57;;
34317;SDS011;20582;52.196;20.952;2022-08-05T09:20:45;10.10;;;4.72;;
34317;SDS011;20582;52.196;20.952;2022-08-05T09:23:12;7.50;;;4.50;;
34317;SDS011;20582;52.196;20.952;2022-08-05T09:25:42;7.85;;;4.00;;
34317;SDS011;20582;52.196;20.952;2022-08-05T09:30:55;8.88;;;4.10;;
34317;SDS011;20582;52.196;20.952;2022-08-05T09:33:22;16.38;;;4.88;;
34317;SDS011;20582;52.196;20.952;2022-08-05T09:36:01;8.00;;;4.53;;
34317;SDS011;20582;52.196;20.952;2022-08-05T09:38:28;8.85;;;4.30;;
34317;SDS011;20582;52.196;20.952;2022-08-05T09:41:05;8.75;;;4.63;;
34317;SDS011;20582;52.196;20.952;2022-08-05T09:43:33;7.28;;;4.50;;
34317;SDS011;20582;52.196;20.952;2022-08-05T09:46:00;9.15;;;5.15;;
34317;SDS011;20582;52.196;20.952;2022-08-05T09:48:27;5.95;;;4.97;;
34317;SDS011;20582;52.196;20.952;2022-08-05T09:50:57;10.30;;;5.60;;
34317;SDS011;20582;52.196;20.952;2022-08-05T09:53:24;7.57;;;5.65;;
34317;SDS011;20582;52.196;20.952;2022-08-05T09:55:51;6.10;;;5.18;;
34317;SDS011;20582;52.196;20.952;2022-08-05T09:58:18;5.38;;;4.63;;
34317;SDS011;20582;52.196;20.952;2022-08-05T10:01:18;7.47;;;5.20;;
34317;SDS011;20582;52.196;20.952;2022-08-05T10:03:38;5.65;;;4.70;;
34317;SDS011;20582;52.196;20.952;2022-08-05T10:06:05;5.88;;;4.63;;
34317;SDS011;20582;52.196;20.952;2022-08-05T10:08:32;9.00;;;4.50;;
34317;SDS011;20582;52.196;20.952;2022-08-05T10:10:58;9.43;;;4.78;;
34317;SDS011;20582;52.196;20.952;2022-08-05T10:13:25;6.18;;;4.80;;
34317;SDS011;20582;52.196;20.952;2022-08-05T10:15:51;7.93;;;4.85;;
34317;SDS011;20582;52.196;20.952;2022-08-05T10:18:18;7.25;;;5.15;;
34317;SDS011;20582;52.196;20.952;2022-08-05T10:20:57;21.38;;;7.32;;
34317;SDS011;20582;52.196;20.952;2022-08-05T10:23:27;9.45;;;5.00;;
34317;SDS011;20582;52.196;20.952;2022-08-05T10:25:57;6.95;;;5.10;;
34317;SDS011;20582;52.196;20.952;2022-08-05T10:28:24;9.27;;;5.47;;
34317;SDS011;20582;52.196;20.952;2022-08-05T10:30:50;8.45;;;4.65;;
34317;SDS011;20582;52.196;20.952;2022-08-05T10:33:17;8.02;;;5.03;;
34317;SDS011;20582;52.196;20.952;2022-08-05T10:35:43;6.63;;;4.82;;
34317;SDS011;20582;52.196;20.952;2022-08-05T10:38:09;9.88;;;5.28;;
34317;SDS011;20582;52.196;20.952;2022-08-05T10:40:42;6.22;;;4.90;;
34317;SDS011;20582;52.196;20.952;2022-08-05T10:45:53;9.75;;;5.10;;
34317;SDS011;20582;52.196;20.952;2022-08-05T10:48:36;5.45;;;4.10;;
34317;SDS011;20582;52.196;20.952;2022-08-05T10:56:03;8.85;;;4.88;;
34317;SDS011;20582;52.196;20.952;2022-08-05T10:58:30;5.88;;;4.50;;
34317;SDS011;20582;52.196;20.952;2022-08-05T11:00:56;7.03;;;5.00;;
34317;SDS011;20582;52.196;20.952;2022-08-05T11:03:22;7.68;;;4.85;;
34317;SDS011;20582;52.196;20.952;2022-08-05T11:08:33;6.57;;;5.10;;
34317;SDS011;20582;52.196;20.952;2022-08-05T11:13:44;10.93;;;4.82;;
34317;SDS011;20582;52.196;20.952;2022-08-05T11:16:20;8.07;;;4.18;;
34317;SDS011;20582;52.196;20.952;2022-08-05T11:18:47;7.97;;;4.30;;
34317;SDS011;20582;52.196;20.952;2022-08-05T11:21:31;7.97;;;4.13;;
34317;SDS011;20582;52.196;20.952;2022-08-05T11:24:05;6.70;;;4.00;;
34317;SDS011;20582;52.196;20.952;2022-08-05T11:26:32;8.65;;;4.47;;
34317;SDS011;20582;52.196;20.952;2022-08-05T11:28:59;8.98;;;4.75;;
34317;SDS011;20582;52.196;20.952;2022-08-05T11:31:27;12.85;;;4.93;;
34317;SDS011;20582;52.196;20.952;2022-08-05T11:33:59;7.53;;;4.90;;
34317;SDS011;20582;52.196;20.952;2022-08-05T11:39:07;6.53;;;5.15;;
34317;SDS011;20582;52.196;20.952;2022-08-05T11:44:10;8.15;;;5.25;;
34317;SDS011;20582;52.196;20.952;2022-08-05T11:46:50;10.95;;;6.22;;
34317;SDS011;20582;52.196;20.952;2022-08-05T11:49:17;6.43;;;5.22;;
34317;SDS011;20582;52.196;20.952;2022-08-05T11:51:44;5.85;;;5.22;;
34317;SDS011;20582;52.196;20.952;2022-08-05T11:54:11;6.90;;;5.10;;
34317;SDS011;20582;52.196;20.952;2022-08-05T11:56:46;7.07;;;4.70;;
34317;SDS011;20582;52.196;20.952;2022-08-05T11:59:18;6.88;;;4.90;;
34317;SDS011;20582;52.196;20.952;2022-08-05T12:01:52;6.20;;;4.43;;
34317;SDS011;20582;52.196;20.952;2022-08-05T12:04:18;8.68;;;5.40;;
34317;SDS011;20582;52.196;20.952;2022-08-05T12:06:44;5.25;;;4.30;;
34317;SDS011;20582;52.196;20.952;2022-08-05T12:09:10;8.55;;;5.43;;
34317;SDS011;20582;52.196;20.952;2022-08-05T12:11:36;6.63;;;5.20;;
34317;SDS011;20582;52.196;20.952;2022-08-05T12:14:03;6.68;;;5.47;;
34317;SDS011;20582;52.196;20.952;2022-08-05T12:18:59;6.15;;;5.45;;
34317;SDS011;20582;52.196;20.952;2022-08-05T12:21:32;7.28;;;5.70;;
34317;SDS011;20582;52.196;20.952;2022-08-05T12:24:03;7.60;;;5.53;;
34317;SDS011;20582;52.196;20.952;2022-08-05T12:26:33;8.70;;;5.22;;
34317;SDS011;20582;52.196;20.952;2022-08-05T12:29:00;6.85;;;5.13;;
34317;SDS011;20582;52.196;20.952;2022-08-05T12:31:26;8.90;;;4.80;;
34317;SDS011;20582;52.196;20.952;2022-08-05T12:33:52;8.73;;;5.75;;
34317;SDS011;20582;52.196;20.952;2022-08-05T12:36:21;10.30;;;6.20;;
34317;SDS011;20582;52.196;20.952;2022-08-05T12:38:47;10.27;;;5.50;;
34317;SDS011;20582;52.196;20.952;2022-08-05T12:41:13;8.35;;;5.07;;
34317;SDS011;20582;52.196;20.952;2022-08-05T12:43:53;7.97;;;4.63;;
34317;SDS011;20582;52.196;20.952;2022-08-05T12:46:24;8.30;;;5.15;;
34317;SDS011;20582;52.196;20.952;2022-08-05T12:48:57;7.93;;;4.95;;
34317;SDS011;20582;52.196;20.952;2022-08-05T12:51:24;7.35;;;4.80;;
34317;SDS011;20582;52.196;20.952;2022-08-05T12:53:51;9.43;;;5.35;;
34317;SDS011;20582;52.196;20.952;2022-08-05T12:56:22;7.07;;;5.05;;
34317;SDS011;20582;52.196;20.952;2022-08-05T13:01:34;9.73;;;4.88;;
34317;SDS011;20582;52.196;20.952;2022-08-05T13:04:02;11.23;;;5.50;;
34317;SDS011;20582;52.196;20.952;2022-08-05T13:06:28;9.52;;;5.38;;
34317;SDS011;20582;52.196;20.952;2022-08-05T13:08:54;6.80;;;4.97;;
34317;SDS011;20582;52.196;20.952;2022-08-05T13:11:21;9.65;;;4.97;;
34317;SDS011;20582;52.196;20.952;2022-08-05T13:13:48;7.15;;;4.88;;
34317;SDS011;20582;52.196;20.952;2022-08-05T13:16:14;6.90;;;4.53;;
34317;SDS011;20582;52.196;20.952;2022-08-05T13:18:51;7.35;;;4.50;;
34317;SDS011;20582;52.196;20.952;2022-08-05T13:21:17;10.02;;;4.40;;
34317;SDS011;20582;52.196;20.952;2022-08-05T13:23:43;9.02;;;4.75;;
34317;SDS011;20582;52.196;20.952;2022-08-05T13:26:09;7.45;;;4.38;;
34317;SDS011;20582;52.196;20.952;2022-08-05T13:28:35;8.52;;;4.80;;
34317;SDS011;20582;52.196;20.952;2022-08-05T13:31:01;11.48;;;4.78;;
34317;SDS011;20582;52.196;20.952;2022-08-05T13:33:27;6.47;;;4.68;;
34317;SDS011;20582;52.196;20.952;2022-08-05T13:35:54;6.35;;;4.70;;
34317;SDS011;20582;52.196;20.952;2022-08-05T13:38:20;6.75;;;4.60;;
34317;SDS011;20582;52.196;20.952;2022-08-05T13:40:46;9.40;;;4.53;;
34317;SDS011;20582;52.196;20.952;2022-08-05T13:43:12;6.03;;;4.30;;
34317;SDS011;20582;52.196;20.952;2022-08-05T13:45:38;8.25;;;4.60;;
34317;SDS011;20582;52.196;20.952;2022-08-05T13:48:04;6.25;;;4.72;;
34317;SDS011;20582;52.196;20.952;2022-08-05T13:50:30;8.73;;;4.78;;
34317;SDS011;20582;52.196;20.952;2022-08-05T13:52:56;8.35;;;4.60;;
34317;SDS011;20582;52.196;20.952;2022-08-05T13:55:22;7.20;;;4.43;;
34317;SDS011;20582;52.196;20.952;2022-08-05T13:57:48;5.78;;;4.38;;
34317;SDS011;20582;52.196;20.952;2022-08-05T14:00:14;5.70;;;4.15;;
34317;SDS011;20582;52.196;20.952;2022-08-05T14:02:40;7.35;;;4.80;;
34317;SDS011;20582;52.196;20.952;2022-08-05T14:05:06;7.05;;;4.70;;
34317;SDS011;20582;52.196;20.952;2022-08-05T14:07:39;7.90;;;4.32;;
34317;SDS011;20582;52.196;20.952;2022-08-05T14:10:06;6.82;;;4.60;;
34317;SDS011;20582;52.196;20.952;2022-08-05T14:12:33;7.68;;;5.20;;
34317;SDS011;20582;52.196;20.952;2022-08-05T14:14:59;8.88;;;4.65;;
34317;SDS011;20582;52.196;20.952;2022-08-05T14:17:25;6.25;;;4.90;;
34317;SDS011;20582;52.196;20.952;2022-08-05T14:19:51;9.85;;;4.82;;
34317;SDS011;20582;52.196;20.952;2022-08-05T14:22:18;9.07;;;5.28;;
34317;SDS011;20582;52.196;20.952;2022-08-05T14:24:45;8.73;;;4.88;;
34317;SDS011;20582;52.196;20.952;2022-08-05T14:27:11;8.20;;;5.00;;
34317;SDS011;20582;52.196;20.952;2022-08-05T14:29:37;8.98;;;4.68;;
34317;SDS011;20582;52.196;20.952;2022-08-05T14:32:03;9.65;;;5.15;;
34317;SDS011;20582;52.196;20.952;2022-08-05T14:34:29;10.07;;;6.03;;
34317;SDS011;20582;52.196;20.952;2022-08-05T14:37:08;8.93;;;5.70;;
34317;SDS011;20582;52.196;20.952;2022-08-05T14:39:34;12.50;;;5.35;;
34317;SDS011;20582;52.196;20.952;2022-08-05T14:42:00;10.18;;;5.65;;
34317;SDS011;20582;52.196;20.952;2022-08-05T14:44:27;10.02;;;5.43;;
34317;SDS011;20582;52.196;20.952;2022-08-05T14:46:53;9.70;;;5.13;;
34317;SDS011;20582;52.196;20.952;2022-08-05T14:49:19;13.95;;;5.65;;
34317;SDS011;20582;52.196;20.952;2022-08-05T14:51:45;12.18;;;5.75;;
34317;SDS011;20582;52.196;20.952;2022-08-05T14:54:11;9.55;;;5.50;;
34317;SDS011;20582;52.196;20.952;2022-08-05T14:56:37;9.02;;;5.22;;
34317;SDS011;20582;52.196;20.952;2022-08-05T14:59:03;7.43;;;5.72;;
34317;SDS011;20582;52.196;20.952;2022-08-05T15:01:29;9.82;;;5.55;;